Time;durP1;ratioP1;P1;durP2;ratioP2;P2;SDS_P1;SDS_P2;PMS_P1;PMS_P2;Temp;Humidity;BMP_temperature;BMP_pressure;BME280_temperature;BME280_humidity;BME280_pressure;Samples;Min_cycle;Max_cycle;Signal;HPM_P1;HPM_P2
2021/03/18 00:01:29;;;;;;;2.47;1.40;;;0.00;1.00;;;;;;5073978;28;20625;-75
2021/03/18 00:03:56;;;;;;;2.75;1.55;;;0.00;1.00;;;;;;5073799;28;20302;-75
2021/03/18 00:06:22;;;;;;;2.63;1.50;;;0.00;1.00;;;;;;5072943;28;20189;-76
2021/03/18 00:08:48;;;;;;;1.70;1.53;;;;;;;;;;5073645;28;20187;-76
2021/03/18 00:11:17;;;;;;;1.70;1.60;;;0.00;1.00;;;;;;5073750;28;20242;-76
2021/03/18 00:13:45;;;;;;;5.63;1.90;;;-0.10;1.00;;;;;;5073523;28;20216;-76
2021/03/18 00:16:11;;;;;;;2.60;1.88;;;-0.10;1.00;;;;;;5073644;28;20155;-74
2021/03/18 00:18:49;;;;;;;1.85;1.50;;;-0.10;1.00;;;;;;5073671;28;20174;-75
2021/03/18 00:21:16;;;;;;;2.42;1.73;;;-0.20;1.00;;;;;;5052590;28;20175;-75
2021/03/18 00:23:41;;;;;;;4.55;1.85;;;-0.10;1.00;;;;;;5053511;28;20156;-75
2021/03/18 00:26:07;;;;;;;2.30;1.50;;;-0.20;1.00;;;;;;5053122;28;20598;-75
2021/03/18 00:28:34;;;;;;;2.03;1.63;;;-0.30;1.00;;;;;;5053545;28;20662;-75
2021/03/18 00:31:00;;;;;;;1.60;1.50;;;;;;;;;;5053771;28;20164;-75
2021/03/18 00:33:27;;;;;;;5.93;2.20;;;-0.30;1.00;;;;;;5076816;28;20271;-75
2021/03/18 00:35:53;;;;;;;3.75;1.55;;;-0.30;1.00;;;;;;5053836;28;20211;-75
2021/03/18 00:38:19;;;;;;;4.20;1.70;;;-0.30;1.00;;;;;;5053324;28;20170;-75
2021/03/18 00:40:51;;;;;;;1.50;1.30;;;-0.30;1.00;;;;;;5063154;28;20262;-75
2021/03/18 00:43:19;;;;;;;1.73;1.60;;;-0.40;1.00;;;;;;5073105;28;20437;-75
2021/03/18 00:45:47;;;;;;;1.60;1.50;;;-0.40;1.00;;;;;;5073268;28;20254;-74
2021/03/18 00:48:14;;;;;;;6.32;1.83;;;-0.40;1.00;;;;;;5072944;28;20174;-75
2021/03/18 00:50:52;;;;;;;3.13;2.05;;;-0.40;1.00;;;;;;5072402;28;20732;-75
2021/03/18 00:53:21;;;;;;;1.95;1.48;;;-0.40;1.00;;;;;;5073244;28;20233;-75
2021/03/18 00:55:49;;;;;;;9.23;1.25;;;-0.50;1.00;;;;;;5070736;28;20199;-75
2021/03/18 00:58:16;;;;;;;4.40;1.80;;;-0.50;1.00;;;;;;5072857;28;20167;-75
2021/03/18 01:00:47;;;;;;;1.80;1.50;;;-0.50;1.00;;;;;;5073441;28;20191;-75
2021/03/18 01:03:13;;;;;;;2.67;1.58;;;-0.50;1.00;;;;;;5071866;28;20163;-75
2021/03/18 01:05:44;;;;;;;5.40;1.85;;;-0.60;1.00;;;;;;5065818;28;20167;-76
2021/03/18 01:08:12;;;;;;;6.35;1.95;;;-0.60;1.00;;;;;;5072748;28;20746;-76
2021/03/18 01:10:39;;;;;;;1.58;1.48;;;-0.60;1.00;;;;;;5071821;28;20181;-76
2021/03/18 01:13:05;;;;;;;1.75;1.50;;;-0.60;1.00;;;;;;5071509;28;20171;-76
2021/03/18 01:15:31;;;;;;;1.40;1.30;;;-0.60;1.00;;;;;;5073164;28;20191;-76
2021/03/18 01:17:57;;;;;;;3.97;1.50;;;;;;;;;;5072610;28;20177;-76
2021/03/18 01:20:23;;;;;;;6.22;2.17;;;;;;;;;;5072672;28;20169;-76
2021/03/18 01:22:50;;;;;;;1.75;1.65;;;;;;;;;;5072836;28;20585;-75
2021/03/18 01:25:16;;;;;;;5.20;2.03;;;;;;;;;;5072795;28;20550;-76
2021/03/18 01:27:42;;;;;;;2.15;1.63;;;;;;;;;;5072449;28;20246;-76
2021/03/18 01:30:14;;;;;;;1.50;1.40;;;-0.70;1.00;;;;;;5071913;28;20178;-75
2021/03/18 01:32:40;;;;;;;2.17;1.95;;;-0.90;1.00;;;;;;5072097;28;20171;-76
2021/03/18 01:35:19;;;;;;;2.92;1.13;;;-0.80;1.00;;;;;;5052663;28;20562;-76
2021/03/18 01:37:46;;;;;;;1.15;1.10;;;-0.80;1.00;;;;;;5052718;28;20159;-76
2021/03/18 01:40:18;;;;;;;3.00;1.83;;;-0.80;1.00;;;;;;5057832;28;20208;-77
2021/03/18 01:42:44;;;;;;;1.38;1.30;;;-0.80;1.00;;;;;;5072379;28;20187;-76
2021/03/18 01:45:11;;;;;;;1.50;1.30;;;-0.80;1.00;;;;;;5072792;28;20166;-74
2021/03/18 01:47:39;;;;;;;2.33;1.63;;;-0.90;1.00;;;;;;5071656;28;20880;-75
2021/03/18 01:50:08;;;;;;;1.90;1.70;;;-0.90;1.00;;;;;;5072425;28;20197;-74
2021/03/18 01:52:33;;;;;;;1.27;1.17;;;-0.90;1.00;;;;;;5072509;28;20155;-74
2021/03/18 01:54:59;;;;;;;8.83;2.40;;;;;;;;;;5069826;28;20187;-74
2021/03/18 01:57:26;;;;;;;2.50;1.40;;;;;;;;;;5064562;28;20900;-74
2021/03/18 01:59:55;;;;;;;2.50;1.73;;;-1.00;1.00;;;;;;5072313;28;20155;-73
2021/03/18 02:02:21;;;;;;;3.38;1.70;;;-1.10;1.00;;;;;;5070887;28;20170;-74
2021/03/18 02:04:47;;;;;;;1.33;1.23;;;;;;;;;;5057306;28;20171;-75
2021/03/18 02:07:13;;;;;;;5.88;1.80;;;;;;;;;;5071525;28;20745;-75
2021/03/18 02:09:39;;;;;;;3.90;1.83;;;;;;;;;;5071471;28;20183;-74
2021/03/18 02:12:05;;;;;;;2.78;1.77;;;-1.20;1.00;;;;;;5072402;28;20474;-75
2021/03/18 02:14:31;;;;;;;3.95;2.13;;;-1.20;1.00;;;;;;5075649;28;20260;-74
2021/03/18 02:17:01;;;;;;;1.97;1.70;;;-1.20;1.00;;;;;;5076012;28;20602;-75
2021/03/18 02:20:02;;;;;;;1.70;1.60;;;-1.20;1.00;;;;;;5055996;28;20637;-75
2021/03/18 02:22:43;;;;;;;2.00;1.63;;;-1.30;1.00;;;;;;5054609;28;20648;-77
2021/03/18 02:25:25;;;;;;;1.77;1.65;;;-1.30;1.00;;;;;;5074317;28;20236;-76
2021/03/18 02:28:13;;;;;;;4.95;1.92;;;-1.30;1.00;;;;;;5075724;28;20234;-76
2021/03/18 02:30:56;;;;;;;4.97;1.90;;;-1.30;1.00;;;;;;5076014;28;20246;-75
2021/03/18 02:33:59;;;;;;;1.50;1.40;;;-1.20;1.00;;;;;;5073891;28;20256;-76
2021/03/18 02:36:35;;;;;;;1.65;1.55;;;-1.30;1.00;;;;;;5076168;28;20261;-76
2021/03/18 02:39:09;;;;;;;2.08;1.73;;;-1.40;1.00;;;;;;5075577;28;20155;-76
2021/03/18 02:41:42;;;;;;;6.57;1.45;;;-1.30;1.00;;;;;;5075337;28;20166;-76
2021/03/18 02:44:22;;;;;;;1.92;1.52;;;-1.40;1.00;;;;;;5075400;28;20239;-76
2021/03/18 02:46:53;;;;;;;2.88;1.95;;;-1.40;1.00;;;;;;5071318;28;20183;-75
2021/03/18 02:49:20;;;;;;;2.00;1.50;;;-1.40;1.00;;;;;;5062730;28;20162;-75
2021/03/18 02:51:46;;;;;;;2.92;1.90;;;-1.40;1.00;;;;;;5094273;28;20174;-76
2021/03/18 02:54:17;;;;;;;3.63;2.50;;;-1.40;1.00;;;;;;5095639;28;20236;-76
2021/03/18 02:56:46;;;;;;;4.22;2.00;;;-1.40;1.00;;;;;;5083555;28;20680;-76
2021/03/18 02:59:16;;;;;;;1.98;1.75;;;-1.40;1.00;;;;;;5071803;28;20270;-76
2021/03/18 03:01:43;;;;;;;2.90;1.80;;;-1.40;1.00;;;;;;5072451;28;20183;-76
2021/03/18 03:04:10;;;;;;;7.03;1.48;;;-1.40;1.00;;;;;;5055097;28;20302;-76
2021/03/18 03:06:36;;;;;;;1.80;1.70;;;-1.50;1.00;;;;;;5054820;28;20214;-77
2021/03/18 03:09:05;;;;;;;1.83;1.25;;;-1.50;1.00;;;;;;5069275;28;20534;-76
2021/03/18 03:11:32;;;;;;;3.00;1.90;;;-1.50;1.00;;;;;;5074576;28;20516;-76
2021/03/18 03:14:00;;;;;;;3.00;1.65;;;-1.60;1.00;;;;;;5075013;28;20191;-76
2021/03/18 03:16:27;;;;;;;3.20;2.10;;;-1.60;1.00;;;;;;5070907;28;20251;-76
2021/03/18 03:18:54;;;;;;;2.25;2.00;;;-1.60;1.00;;;;;;5053662;28;20172;-76
2021/03/18 03:21:21;;;;;;;3.38;1.70;;;-1.60;1.00;;;;;;5054474;28;20178;-76
2021/03/18 03:23:48;;;;;;;3.05;1.67;;;-1.60;1.00;;;;;;5053593;28;20554;-76
2021/03/18 03:26:17;;;;;;;4.05;1.90;;;-1.60;1.00;;;;;;5054607;28;20238;-77
2021/03/18 03:28:45;;;;;;;1.83;1.67;;;-1.60;1.00;;;;;;5054601;28;20156;-76
2021/03/18 03:31:10;;;;;;;3.13;2.00;;;-1.60;1.00;;;;;;5055271;28;20187;-74
2021/03/18 03:33:38;;;;;;;2.20;1.70;;;-1.60;1.00;;;;;;5067009;28;20183;-74
2021/03/18 03:36:04;;;;;;;4.00;2.20;;;-1.60;1.00;;;;;;5073302;28;20209;-74
2021/03/18 03:38:29;;;;;;;4.15;1.80;;;-1.60;1.00;;;;;;5074350;28;20171;-75
2021/03/18 03:40:56;;;;;;;1.73;1.43;;;;;;;;;;5074043;28;20182;-75
2021/03/18 03:43:22;;;;;;;4.65;2.10;;;-1.60;1.00;;;;;;5074280;28;20178;-74
2021/03/18 03:45:52;;;;;;;12.20;2.00;;;-1.60;1.00;;;;;;5071070;28;20519;-75
2021/03/18 03:48:19;;;;;;;8.77;1.73;;;-1.70;1.00;;;;;;5054943;28;20399;-76
2021/03/18 03:50:45;;;;;;;2.47;1.95;;;-1.70;1.00;;;;;;5054382;28;20524;-76
2021/03/18 03:53:39;;;;;;;5.75;2.33;;;-1.70;1.00;;;;;;5054355;28;20187;-76
2021/03/18 03:56:35;;;;;;;3.95;2.30;;;-1.70;1.00;;;;;;5054168;28;20210;-76
2021/03/18 03:59:13;;;;;;;4.72;2.40;;;-1.80;1.00;;;;;;5067344;28;20195;-76
2021/03/18 04:01:47;;;;;;;4.95;2.25;;;-1.80;1.00;;;;;;5062076;28;20171;-74
2021/03/18 04:04:21;;;;;;;1.70;1.60;;;-1.80;1.00;;;;;;5054217;28;20147;-74
2021/03/18 04:06:50;;;;;;;3.88;2.35;;;-1.80;1.00;;;;;;5072451;28;20171;-74
2021/03/18 04:09:17;;;;;;;5.47;1.90;;;-1.80;1.00;;;;;;5073563;28;20601;-75
2021/03/18 04:11:43;;;;;;;4.22;1.50;;;-1.70;1.00;;;;;;5073645;28;20607;-74
2021/03/18 04:14:12;;;;;;;3.72;2.35;;;-1.70;1.00;;;;;;5072397;28;20285;-74
2021/03/18 04:16:41;;;;;;;2.35;2.15;;;-1.80;1.00;;;;;;5059506;28;20172;-74
2021/03/18 04:19:09;;;;;;;1.85;1.70;;;-1.80;1.00;;;;;;5053690;28;20172;-74
2021/03/18 04:21:38;;;;;;;2.75;2.00;;;-1.80;1.00;;;;;;5051752;28;20172;-74
2021/03/18 04:24:06;;;;;;;4.18;2.13;;;-1.70;1.00;;;;;;5053379;28;20646;-74
2021/03/18 04:26:34;;;;;;;4.68;2.70;;;-1.70;1.00;;;;;;5053172;28;20255;-74
2021/03/18 04:29:04;;;;;;;3.90;2.13;;;-1.80;1.00;;;;;;5053475;28;20630;-75
2021/03/18 04:31:32;;;;;;;4.97;2.55;;;-1.70;1.00;;;;;;5054113;28;20615;-74
2021/03/18 04:34:00;;;;;;;4.07;1.85;;;-1.70;1.00;;;;;;5070122;28;20438;-74
2021/03/18 04:36:29;;;;;;;2.00;1.83;;;-1.60;1.00;;;;;;5053593;28;20167;-74
2021/03/18 04:38:57;;;;;;;5.05;2.10;;;-1.60;1.00;;;;;;5056909;28;20179;-74
2021/03/18 04:41:24;;;;;;;5.88;2.50;;;-1.50;1.00;;;;;;5073264;28;20463;-75
2021/03/18 04:43:50;;;;;;;5.28;2.22;;;-1.40;1.00;;;;;;5073227;28;20194;-74
2021/03/18 04:46:16;;;;;;;4.00;2.40;;;-1.40;1.00;;;;;;5072491;28;20190;-74
2021/03/18 04:48:43;;;;;;;6.40;2.50;;;-1.30;1.00;;;;;;5073493;28;20264;-74
2021/03/18 04:51:10;;;;;;;2.10;1.90;;;-1.30;1.00;;;;;;5072984;28;20242;-74
2021/03/18 04:53:37;;;;;;;1.88;1.75;;;-1.10;1.00;;;;;;5073087;28;20151;-75
2021/03/18 04:56:07;;;;;;;4.60;2.70;;;-1.10;1.00;;;;;;5072975;28;20191;-74
2021/03/18 04:58:35;;;;;;;4.57;2.97;;;-1.00;1.00;;;;;;5069257;28;20203;-74
2021/03/18 05:01:01;;;;;;;2.00;1.80;;;-1.00;1.00;;;;;;5057190;28;20187;-74
2021/03/18 05:03:27;;;;;;;2.85;1.90;;;-0.90;1.00;;;;;;5053404;28;20171;-76
2021/03/18 05:05:57;;;;;;;4.93;2.42;;;-0.80;1.00;;;;;;5063274;28;20585;-76
2021/03/18 05:08:23;;;;;;;2.38;1.83;;;-0.70;1.00;;;;;;5073016;28;20179;-76
2021/03/18 05:10:50;;;;;;;2.47;1.70;;;-0.70;1.00;;;;;;5072876;28;20527;-76
2021/03/18 05:13:16;;;;;;;3.70;2.33;;;-0.60;1.00;;;;;;5073182;28;20166;-76
2021/03/18 05:15:42;;;;;;;2.17;1.70;;;-0.60;1.00;;;;;;5072201;28;20193;-76
2021/03/18 05:18:11;;;;;;;2.25;1.98;;;-0.50;1.00;;;;;;5073308;28;20186;-76
2021/03/18 05:20:38;;;;;;;8.95;2.53;;;-0.40;1.00;;;;;;5072479;28;20166;-76
2021/03/18 05:23:06;;;;;;;3.55;2.40;;;-0.40;1.00;;;;;;5072845;28;20151;-76
2021/03/18 05:25:32;;;;;;;4.88;2.78;;;;;;;;;;5072417;28;20163;-76
2021/03/18 05:27:58;;;;;;;2.10;1.92;;;-0.30;1.00;;;;;;5072993;28;20220;-76
2021/03/18 05:30:31;;;;;;;1.88;1.75;;;-0.30;1.00;;;;;;5071987;28;20171;-76
2021/03/18 05:32:58;;;;;;;5.75;2.22;;;-0.20;1.00;;;;;;5073022;28;20240;-77
2021/03/18 05:35:24;;;;;;;5.80;2.22;;;;;;;;;;5072773;28;20194;-77
2021/03/18 05:37:50;;;;;;;3.80;1.65;;;-0.10;1.00;;;;;;5072879;28;20167;-77
2021/03/18 05:40:16;;;;;;;7.83;2.73;;;;;;;;;;5072498;28;20170;-76
2021/03/18 05:42:42;;;;;;;8.02;1.60;;;0.00;1.00;;;;;;5072435;28;20421;-76
2021/03/18 05:45:12;;;;;;;2.97;1.80;;;0.00;1.00;;;;;;5058202;28;20195;-76
2021/03/18 05:47:38;;;;;;;1.10;1.00;;;;;;;;;;5055407;28;20192;-76
2021/03/18 05:50:08;;;;;;;2.33;1.30;;;0.10;1.00;;;;;;5055097;28;20171;-77
2021/03/18 05:52:35;;;;;;;2.10;1.35;;;0.10;1.00;;;;;;5056590;28;20171;-77
2021/03/18 05:55:03;;;;;;;2.08;1.48;;;0.20;1.00;;;;;;5056599;28;20685;-76
2021/03/18 05:57:29;;;;;;;8.15;1.25;;;0.20;1.00;;;;;;5057905;28;20221;-76
2021/03/18 05:59:56;;;;;;;1.27;1.10;;;0.30;1.00;;;;;;5064625;28;20651;-77
2021/03/18 06:02:22;;;;;;;21.80;1.00;;;0.30;1.00;;;;;;5075781;28;20182;-74
2021/03/18 06:04:48;;;;;;;3.60;1.30;;;;;;;;;;5071462;28;20391;-75
2021/03/18 06:07:14;;;;;;;5.28;1.50;;;0.50;1.00;;;;;;5076073;28;20279;-75
2021/03/18 06:09:40;;;;;;;1.33;0.90;;;;;;;;;;5072354;28;20821;-75
2021/03/18 06:12:07;;;;;;;4.15;1.67;;;0.50;1.00;;;;;;5071517;28;20172;-75
2021/03/18 06:14:33;;;;;;;1.40;1.10;;;0.60;1.00;;;;;;5056007;28;20199;-75
2021/03/18 06:16:59;;;;;;;1.38;1.05;;;0.80;1.00;;;;;;5055920;28;20186;-75
2021/03/18 06:19:26;;;;;;;3.08;1.40;;;0.80;1.00;;;;;;5056248;28;20160;-75
2021/03/18 06:21:57;;;;;;;3.92;1.20;;;0.90;1.00;;;;;;5064291;28;20661;-75
2021/03/18 06:24:26;;;;;;;2.35;2.05;;;0.90;1.00;;;;;;5075452;28;20178;-75
2021/03/18 06:26:52;;;;;;;4.53;1.35;;;1.00;1.00;;;;;;5074726;28;20221;-75
2021/03/18 06:29:34;;;;;;;1.60;1.40;;;1.10;1.00;;;;;;5075964;28;20159;-75
2021/03/18 06:32:15;;;;;;;1.20;1.10;;;1.10;1.00;;;;;;5075480;28;20610;-75
2021/03/18 06:34:51;;;;;;;3.30;1.20;;;1.30;1.00;;;;;;5075819;28;20645;-75
2021/03/18 06:37:34;;;;;;;2.70;1.50;;;1.40;1.00;;;;;;5075767;28;20217;-75
2021/03/18 06:40:11;;;;;;;2.72;1.60;;;1.50;1.00;;;;;;5070203;28;20167;-75
2021/03/18 06:42:38;;;;;;;1.77;1.42;;;1.60;1.00;;;;;;5054136;28;20197;-75
2021/03/18 06:45:12;;;;;;;1.77;1.55;;;1.70;1.00;;;;;;5055531;28;20152;-74
2021/03/18 06:47:57;;;;;;;1.30;1.17;;;1.80;1.00;;;;;;5069577;28;20187;-74
2021/03/18 06:50:25;;;;;;;6.00;1.73;;;1.90;1.00;;;;;;5084836;28;20180;-79
2021/03/18 06:52:51;;;;;;;2.22;1.70;;;2.10;1.00;;;;;;5095616;28;20180;-75
2021/03/18 06:55:24;;;;;;;9.07;2.28;;;2.20;1.00;;;;;;5081170;28;20225;-75
2021/03/18 06:58:13;;;;;;;4.20;1.85;;;2.30;1.00;;;;;;5074952;28;20607;-75
2021/03/18 07:00:40;;;;;;;5.05;2.08;;;2.50;1.00;;;;;;5074173;28;20187;-75
2021/03/18 07:03:09;;;;;;;5.57;1.63;;;2.50;1.00;;;;;;5074298;28;20232;-76
2021/03/18 07:05:40;;;;;;;2.35;2.15;;;2.60;1.00;;;;;;5072874;28;20618;-77
2021/03/18 07:08:06;;;;;;;7.63;2.40;;;2.80;1.00;;;;;;5074920;28;20179;-77
2021/03/18 07:10:36;;;;;;;3.03;2.42;;;2.90;1.00;;;;;;5074989;28;20637;-77
2021/03/18 07:13:20;;;;;;;5.40;2.38;;;3.00;1.00;;;;;;5075061;28;20156;-76
2021/03/18 07:15:47;;;;;;;3.08;2.08;;;3.10;1.00;;;;;;5074836;28;20183;-76
2021/03/18 07:18:14;;;;;;;2.72;2.40;;;3.20;1.00;;;;;;5075383;28;20168;-75
2021/03/18 07:21:14;;;;;;;5.95;2.35;;;3.30;1.00;;;;;;5074367;28;20542;-75
2021/03/18 07:23:44;;;;;;;2.60;2.40;;;3.40;1.00;;;;;;5065396;28;20184;-78
2021/03/18 07:26:12;;;;;;;2.92;2.10;;;3.60;1.00;;;;;;5055355;28;20247;-75
2021/03/18 07:29:16;;;;;;;4.85;3.00;;;3.90;1.00;;;;;;5071237;28;20595;-75
2021/03/18 07:31:42;;;;;;;2.67;2.40;;;4.00;1.00;;;;;;5070800;28;20177;-75
2021/03/18 07:34:09;;;;;;;6.32;3.03;;;4.20;1.00;;;;;;5076066;28;20294;-76
2021/03/18 07:36:43;;;;;;;4.53;2.60;;;4.40;1.00;;;;;;5076026;28;20533;-76
2021/03/18 07:39:09;;;;;;;3.92;2.85;;;4.60;1.00;;;;;;5063357;28;20211;-76
2021/03/18 07:42:07;;;;;;;3.70;2.70;;;4.70;1.00;;;;;;5075084;28;20178;-76
2021/03/18 07:44:39;;;;;;;4.97;2.95;;;4.80;1.00;;;;;;5085505;28;20183;-76
2021/03/18 07:47:19;;;;;;;7.55;3.33;;;4.80;1.00;;;;;;5075434;28;20481;-77
2021/03/18 07:49:51;;;;;;;9.88;2.45;;;4.90;1.00;;;;;;5075631;28;20496;-75
2021/03/18 07:52:27;;;;;;;5.28;2.78;;;5.00;1.00;;;;;;5073213;28;20815;-75
2021/03/18 07:54:56;;;;;;;6.32;3.03;;;5.10;1.00;;;;;;5074313;28;20190;-75
2021/03/18 07:57:25;;;;;;;4.10;2.70;;;5.10;1.00;;;;;;5073680;28;20199;-75
2021/03/18 08:00:21;;;;;;;8.90;3.25;;;5.20;1.00;;;;;;5072702;28;20179;-75
2021/03/18 08:02:48;;;;;;;3.45;2.72;;;5.20;1.00;;;;;;4991397;28;20190;-75
2021/03/18 08:05:36;;;;;;;5.72;3.25;;;5.20;1.00;;;;;;4993797;28;20169;-74
2021/03/18 08:08:07;;;;;;;5.53;3.00;;;5.20;1.00;;;;;;5010311;28;20731;-75
2021/03/18 08:11:02;;;;;;;4.80;3.00;;;5.20;1.00;;;;;;5027580;28;20211;-75
2021/03/18 08:13:32;;;;;;;2.63;2.40;;;5.20;1.00;;;;;;5023239;28;20193;-75
2021/03/18 08:16:27;;;;;;;8.43;3.00;;;5.30;1.00;;;;;;5009780;28;20201;-75
2021/03/18 08:18:54;;;;;;;3.80;2.33;;;5.50;1.00;;;;;;5007075;28;20181;-75
2021/03/18 08:21:51;;;;;;;8.95;3.08;;;5.60;1.00;;;;;;5012031;28;20259;-75
2021/03/18 08:24:20;;;;;;;47.83;3.70;;;5.60;1.00;;;;;;4914531;29;20192;-75
2021/03/18 08:26:47;;;;;;;4.75;2.80;;;;;;;;;;4914580;29;20203;-75
2021/03/18 08:29:16;;;;;;;4.27;2.80;;;5.70;1.00;;;;;;4914729;29;20309;-75
2021/03/18 08:32:26;;;;;;;5.10;2.78;;;5.70;1.00;;;;;;4914995;29;20450;-75
2021/03/18 08:34:58;;;;;;;5.30;3.22;;;6.00;1.00;;;;;;4915100;29;20279;-76
2021/03/18 08:37:37;;;;;;;8.13;3.13;;;5.80;1.00;;;;;;4913948;29;20189;-76
2021/03/18 08:40:09;;;;;;;4.07;3.00;;;5.90;1.00;;;;;;4981303;28;20799;-76
2021/03/18 08:42:38;;;;;;;4.77;2.53;;;5.90;1.00;;;;;;4991548;28;20463;-76
2021/03/18 08:45:10;;;;;;;3.83;2.80;;;5.90;1.00;;;;;;4991213;28;20443;-76
2021/03/18 08:47:44;;;;;;;3.47;2.83;;;5.90;1.00;;;;;;4991538;28;20421;-76
2021/03/18 08:50:33;;;;;;;8.57;3.22;;;5.80;1.00;;;;;;4992049;28;20480;-76
2021/03/18 08:53:23;;;;;;;6.72;2.92;;;5.70;1.00;;;;;;4991161;28;20276;-77
2021/03/18 08:55:50;;;;;;;3.72;2.65;;;5.50;1.00;;;;;;4991280;28;20193;-77
2021/03/18 08:58:16;;;;;;;5.63;2.58;;;;;;;;;;4991256;28;20645;-77
2021/03/18 09:00:45;;;;;;;7.00;2.57;;;5.30;1.00;;;;;;5033897;28;20204;-77
2021/03/18 09:03:16;;;;;;;13.60;2.78;;;5.30;1.00;;;;;;5071115;28;20440;-76
2021/03/18 09:05:50;;;;;;;4.53;2.63;;;5.30;1.00;;;;;;5070814;28;20653;-75
2021/03/18 09:08:21;;;;;;;4.30;2.90;;;5.40;1.00;;;;;;5072685;28;20297;-75
2021/03/18 09:10:48;;;;;;;4.63;2.42;;;;;;;;;;5066756;28;20524;-75
2021/03/18 09:13:16;;;;;;;5.50;2.80;;;5.30;1.00;;;;;;5061695;28;20261;-75
2021/03/18 09:15:44;;;;;;;2.60;2.38;;;5.40;1.00;;;;;;5062041;28;20467;-75
2021/03/18 09:18:22;;;;;;;5.07;2.35;;;5.40;1.00;;;;;;5063725;28;20262;-75
2021/03/18 09:20:57;;;;;;;3.07;2.47;;;5.40;1.00;;;;;;5072144;28;20179;-75
2021/03/18 09:23:26;;;;;;;6.38;2.85;;;5.50;1.00;;;;;;5072438;28;20393;-75
2021/03/18 09:25:55;;;;;;;5.60;2.08;;;5.60;1.00;;;;;;5068406;28;20175;-75
2021/03/18 09:28:21;;;;;;;11.70;2.87;;;;;;;;;;5072538;28;20222;-75
2021/03/18 09:30:54;;;;;;;2.40;2.20;;;5.90;1.00;;;;;;5071236;28;20844;-75
2021/03/18 09:33:30;;;;;;;8.25;2.80;;;6.00;1.00;;;;;;5072438;28;20432;-75
2021/03/18 09:35:58;;;;;;;2.47;2.23;;;6.10;1.00;;;;;;5071046;28;20572;-75
2021/03/18 09:38:29;;;;;;;10.37;2.70;;;6.10;1.00;;;;;;5076428;28;20413;-75
2021/03/18 09:40:57;;;;;;;3.50;2.30;;;6.30;1.00;;;;;;5076194;28;20781;-79
2021/03/18 09:43:23;;;;;;;15.43;2.43;;;6.30;1.00;;;;;;5092693;28;20428;-78
2021/03/18 09:45:52;;;;;;;9.93;2.70;;;6.40;1.00;;;;;;5092817;28;20407;-78
2021/03/18 09:48:25;;;;;;;4.93;3.10;;;6.50;1.00;;;;;;5089274;28;20397;-78
2021/03/18 09:50:53;;;;;;;8.13;3.03;;;;;;;;;;5070318;28;20494;-78
2021/03/18 09:53:19;;;;;;;4.97;2.60;;;6.60;1.00;;;;;;5070535;28;20406;-78
2021/03/18 09:55:45;;;;;;;6.17;3.10;;;7.00;1.00;;;;;;5072349;28;20436;-78
2021/03/18 09:58:18;;;;;;;6.60;3.00;;;7.10;1.00;;;;;;5072511;28;20753;-78
2021/03/18 10:00:44;;;;;;;4.03;2.57;;;;;;;;;;5072720;28;20155;-78
2021/03/18 10:03:11;;;;;;;5.90;2.30;;;;;;;;;;5070489;28;20433;-78
2021/03/18 10:05:36;;;;;;;4.47;3.40;;;7.30;1.00;;;;;;5068267;28;20482;-81
2021/03/18 10:08:03;;;;;;;3.43;2.43;;;7.40;1.00;;;;;;5062981;28;20824;-81
2021/03/18 10:10:30;;;;;;;4.43;2.50;;;7.40;1.00;;;;;;5052285;28;20493;-81
2021/03/18 10:12:57;;;;;;;3.20;2.60;;;;;;;;;;5052575;28;20485;-81
2021/03/18 10:15:23;;;;;;;2.53;2.00;;;;;;;;;;5067804;28;20511;-81
2021/03/18 10:17:50;;;;;;;3.50;3.07;;;7.40;1.00;;;;;;5052293;28;20474;-81
2021/03/18 10:20:32;;;;;;;5.10;2.53;;;7.40;1.00;;;;;;5069065;28;20459;-79
2021/03/18 10:23:02;;;;;;;4.37;1.83;;;7.50;1.00;;;;;;5066605;28;20460;-75
2021/03/18 10:25:31;;;;;;;3.03;1.90;;;7.50;1.00;;;;;;5071782;28;20462;-75
2021/03/18 10:28:04;;;;;;;6.30;2.53;;;7.60;1.00;;;;;;5070647;28;20425;-74
2021/03/18 10:30:32;;;;;;;2.83;2.50;;;7.50;1.00;;;;;;5063181;28;20813;-74
2021/03/18 10:33:12;;;;;;;4.23;2.70;;;7.60;1.00;;;;;;5080413;28;20785;-74
2021/03/18 10:35:42;;;;;;;6.17;2.80;;;7.70;1.00;;;;;;5084869;28;20468;-76
2021/03/18 10:38:12;;;;;;;7.67;3.23;;;7.70;1.00;;;;;;5074354;28;20500;-76
2021/03/18 10:40:46;;;;;;;5.30;3.57;;;7.80;1.00;;;;;;5075606;28;20402;-76
2021/03/18 10:43:30;;;;;;;6.37;2.97;;;7.90;1.00;;;;;;5075448;28;20943;-76
2021/03/18 10:46:05;;;;;;;6.00;2.97;;;8.10;1.00;;;;;;5073873;28;20931;-75
2021/03/18 10:48:33;;;;;;;6.17;2.93;;;8.10;1.00;;;;;;5075368;28;20458;-75
2021/03/18 10:51:08;;;;;;;4.47;2.90;;;8.10;1.00;;;;;;5067993;28;20462;-74
2021/03/18 10:53:39;;;;;;;7.57;3.83;;;8.20;1.00;;;;;;5055268;28;20398;-75
2021/03/18 10:56:09;;;;;;;8.03;4.03;;;8.40;1.00;;;;;;5057853;28;20956;-74
2021/03/18 10:58:35;;;;;;;6.00;3.23;;;;;;;;;;5075154;28;20417;-74
2021/03/18 11:01:07;;;;;;;7.27;3.73;;;8.80;1.00;;;;;;5075280;28;20468;-74
2021/03/18 11:03:34;;;;;;;9.27;4.30;;;9.10;1.00;;;;;;5073928;28;20406;-75
2021/03/18 11:06:01;;;;;;;6.77;3.57;;;;;;;;;;5069118;28;20498;-73
2021/03/18 11:08:33;;;;;;;7.53;3.63;;;9.50;1.00;;;;;;5059163;28;20405;-74
2021/03/18 11:11:02;;;;;;;5.87;3.93;;;9.90;1.00;;;;;;5073724;28;20413;-75
2021/03/18 11:13:31;;;;;;;10.23;4.20;;;10.20;1.00;;;;;;5073694;28;20412;-74
2021/03/18 11:16:04;;;;;;;6.77;3.90;;;10.40;1.00;;;;;;5074743;28;20445;-74
2021/03/18 11:18:36;;;;;;;5.77;3.53;;;10.60;1.00;;;;;;5074757;28;20393;-74
2021/03/18 11:21:05;;;;;;;5.27;3.80;;;;;;;;;;5074842;28;20386;-76
2021/03/18 11:23:37;;;;;;;5.50;3.90;;;10.40;1.00;;;;;;5074575;28;20481;-75
2021/03/18 11:26:06;;;;;;;11.00;5.27;;;10.60;1.00;;;;;;5074435;28;20576;-74
2021/03/18 11:28:46;;;;;;;9.83;5.20;;;10.80;1.00;;;;;;5074503;28;20406;-75
2021/03/18 11:31:14;;;;;;;15.50;4.83;;;11.10;1.00;;;;;;5074540;28;20496;-74
2021/03/18 11:33:40;;;;;;;5.47;4.00;;;11.20;1.00;;;;;;5074373;28;20417;-74
2021/03/18 11:36:07;;;;;;;7.93;4.57;;;;;;;;;;5074872;28;20469;-76
2021/03/18 11:38:33;;;;;;;8.07;4.33;;;11.20;1.00;;;;;;5074485;28;20167;-77
2021/03/18 11:40:59;;;;;;;8.73;4.50;;;;;;;;;;5074190;28;20413;-76
2021/03/18 11:43:26;;;;;;;8.03;4.37;;;11.40;1.00;;;;;;5074373;28;20475;-76
2021/03/18 11:45:52;;;;;;;8.67;4.40;;;;;;;;;;5073182;28;20474;-76
2021/03/18 11:48:18;;;;;;;3.43;2.87;;;;;;;;;;5074336;28;20807;-76
2021/03/18 11:50:44;;;;;;;9.30;3.50;;;;;;;;;;5074265;28;20977;-74
2021/03/18 11:53:10;;;;;;;5.43;3.53;;;;;;;;;;5074020;28;20409;-74
2021/03/18 11:55:38;;;;;;;3.77;2.90;;;10.20;1.00;;;;;;5074127;28;20480;-75
2021/03/18 11:58:04;;;;;;;3.97;2.77;;;;;;;;;;5073920;28;20529;-75
2021/03/18 12:00:32;;;;;;;5.13;2.73;;;10.40;1.00;;;;;;5074064;28;20386;-75
2021/03/18 12:03:00;;;;;;;4.20;3.17;;;10.50;1.00;;;;;;5073945;28;20398;-75
2021/03/18 12:05:26;;;;;;;6.30;3.70;;;;;;;;;;5069112;28;20426;-75
2021/03/18 12:07:52;;;;;;;5.37;3.63;;;10.60;1.00;;;;;;5072845;28;20813;-76
2021/03/18 12:10:18;;;;;;;5.60;3.80;;;10.60;1.00;;;;;;5073815;28;20459;-76
2021/03/18 12:12:44;;;;;;;5.67;3.37;;;;;;;;;;5073963;28;20160;-76
2021/03/18 12:15:11;;;;;;;10.63;3.90;;;10.40;1.00;;;;;;5073667;28;20452;-76
2021/03/18 12:17:38;;;;;;;6.00;3.77;;;10.50;1.00;;;;;;5073693;28;20398;-76
2021/03/18 12:20:10;;;;;;;7.23;4.13;;;10.50;1.00;;;;;;5073358;28;20389;-76
2021/03/18 12:22:36;;;;;;;5.50;3.97;;;10.50;1.00;;;;;;5073802;28;20476;-75
2021/03/18 12:25:05;;;;;;;6.13;4.17;;;10.60;1.00;;;;;;5071661;28;20424;-75
2021/03/18 12:27:30;;;;;;;9.63;3.80;;;10.30;1.00;;;;;;5073088;28;20414;-76
2021/03/18 12:29:56;;;;;;;10.40;3.90;;;;;;;;;;5081713;28;20428;-75
2021/03/18 12:32:22;;;;;;;6.10;4.10;;;9.80;1.00;;;;;;5080571;28;20646;-76
2021/03/18 12:34:49;;;;;;;7.73;4.77;;;;;;;;;;5078421;28;20499;-76
2021/03/18 12:37:15;;;;;;;7.77;4.20;;;9.40;1.00;;;;;;5072240;28;20432;-74
2021/03/18 12:39:45;;;;;;;10.67;4.40;;;8.90;1.00;;;;;;5073311;28;20400;-75
2021/03/18 12:42:12;;;;;;;6.43;3.80;;;8.80;1.00;;;;;;5053170;28;20440;-74
2021/03/18 12:44:39;;;;;;;8.37;4.50;;;8.80;1.00;;;;;;5053178;28;20438;-76
2021/03/18 12:47:06;;;;;;;6.63;3.93;;;8.80;1.00;;;;;;5054344;28;20488;-75
2021/03/18 12:49:32;;;;;;;6.40;4.20;;;;;;;;;;5056453;28;20421;-74
2021/03/18 12:51:58;;;;;;;7.07;4.20;;;;;;;;;;5056635;28;20426;-74
2021/03/18 12:54:24;;;;;;;11.23;4.07;;;;;;;;;;5070266;28;20452;-71
2021/03/18 13:00:15;;;;;;;5.00;3.43;;;9.90;1.00;;;;;;5053575;28;20406;-78
2021/03/18 13:02:55;;;;;;;5.67;3.37;;;10.10;1.00;;;;;;5055375;28;20894;-78
2021/03/18 13:05:21;;;;;;;4.00;3.03;;;;;;;;;;5073301;28;20428;-80
2021/03/18 13:07:48;;;;;;;12.50;4.67;;;10.50;1.00;;;;;;5065893;28;20516;-76
2021/03/18 13:10:16;;;;;;;5.73;3.77;;;10.70;1.00;;;;;;5073052;28;20484;-74
2021/03/18 13:12:42;;;;;;;4.20;2.90;;;10.80;1.00;;;;;;5059204;28;20521;-77
2021/03/18 13:15:10;;;;;;;7.17;3.73;;;11.10;1.00;;;;;;5072698;28;20960;-75
2021/03/18 13:17:36;;;;;;;5.03;3.53;;;11.10;1.00;;;;;;5072566;28;20610;-77
2021/03/18 13:20:05;;;;;;;3.40;3.10;;;11.20;1.00;;;;;;5072521;28;20941;-77
2021/03/18 13:22:31;;;;;;;6.50;3.80;;;11.10;1.00;;;;;;5073080;28;20508;-77
2021/03/18 13:24:57;;;;;;;5.70;4.10;;;;;;;;;;5071563;28;20500;-77
2021/03/18 13:27:22;;;;;;;4.03;3.47;;;11.00;1.00;;;;;;5072448;28;20170;-77
2021/03/18 13:29:48;;;;;;;6.60;3.57;;;;;;;;;;5069610;28;20469;-76
2021/03/18 13:32:14;;;;;;;8.90;4.63;;;;;;;;;;5061119;28;20220;-76
2021/03/18 13:34:40;;;;;;;7.03;3.83;;;10.90;1.00;;;;;;5085047;28;20480;-75